Time;durP1;ratioP1;P1;durP2;ratioP2;P2;SDS_P1;SDS_P2;PMS_P1;PMS_P2;Temp;Humidity;BMP_temperature;BMP_pressure;BME280_temperature;BME280_humidity;BME280_pressure;Samples;Min_cycle;Max_cycle;Signal;HPM_P1;HPM_P2
2023/04/26 00:00:18;;;;;;;;;11.00;6.00;;;;;7.66;59.74;101720.44;5118797;27;45199;-69
2023/04/26 00:02:43;;;;;;;;;13.00;9.00;;;;;7.69;59.88;101727.44;5100247;27;45383;-69
2023/04/26 00:05:09;;;;;;;;;7.00;6.00;;;;;7.69;60.44;101730.06;5119015;27;45412;-69
2023/04/26 00:07:34;;;;;;;;;9.00;6.00;;;;;7.62;60.27;101709.06;5118561;27;46591;-69
2023/04/26 00:10:00;;;;;;;;;16.33;10.67;;;;;7.63;60.02;101723.91;5118457;27;45313;-69
2023/04/26 00:12:26;;;;;;;;;9.00;7.00;;;;;7.61;60.27;101720.41;5118878;27;45892;-68
2023/04/26 00:14:51;;;;;;;;;7.67;6.00;;;;;7.59;59.97;101724.75;5119069;27;45389;-68
2023/04/26 00:17:17;;;;;;;;;10.33;10.00;;;;;7.46;60.06;101709.81;5118590;27;47406;-68
2023/04/26 00:19:42;;;;;;;;;9.67;9.00;;;;;7.36;60.81;101710.66;5118361;27;45368;-68
2023/04/26 00:22:08;;;;;;;;;16.00;13.00;;;;;7.35;60.64;101721.97;5116728;27;45324;-68
2023/04/26 00:24:33;;;;;;;;;12.67;12.67;;;;;7.42;60.91;101726.41;5118683;27;45479;-68
2023/04/26 00:27:00;;;;;;;;;22.67;17.00;;;;;7.34;60.60;101704.53;5118302;27;47153;-69
2023/04/26 00:29:26;;;;;;;;;16.00;12.00;;;;;7.45;60.82;101732.53;5118368;27;45850;-68
2023/04/26 00:31:51;;;;;;;;;18.00;15.67;;;;;7.39;60.95;101716.78;5118719;27;45343;-69
2023/04/26 00:34:17;;;;;;;;;26.33;23.67;;;;;7.37;60.67;101715.03;5117154;27;45540;-69
2023/04/26 00:36:42;;;;;;;;;22.33;18.33;;;;;7.32;60.85;101718.50;5118180;27;46019;-69
2023/04/26 00:39:08;;;;;;;;;23.67;18.33;;;;;7.31;61.54;101724.59;5118207;27;45404;-68
2023/04/26 00:41:34;;;;;;;;;22.67;19.33;;;;;7.29;61.14;101723.72;5118285;27;45213;-69
2023/04/26 00:43:59;;;;;;;;;22.67;17.67;;;;;7.20;61.48;101721.00;5132102;27;45246;-68
2023/04/26 00:46:27;;;;;;;;;23.67;17.33;;;;;7.14;61.96;101700.03;5138705;27;46464;-69
2023/04/26 00:48:53;;;;;;;;;21.00;17.67;;;;;7.09;61.71;101705.22;5137467;27;45774;-69
2023/04/26 00:51:19;;;;;;;;;14.33;11.67;;;;;7.14;62.52;101720.97;5138997;27;45405;-69
2023/04/26 00:53:45;;;;;;;;;21.33;19.33;;;;;7.04;61.94;101687.72;5138833;27;45340;-68
2023/04/26 00:56:11;;;;;;;;;18.33;16.00;;;;;7.16;61.79;101711.41;5138759;27;46478;-68
2023/04/26 00:58:37;;;;;;;;;16.50;12.00;;;;;7.05;61.56;101692.97;5138617;27;45406;-68
2023/04/26 01:01:02;;;;;;;;;12.67;11.67;;;;;7.01;62.17;101700.81;5138849;27;45381;-68
2023/04/26 01:03:28;;;;;;;;;12.00;10.33;;;;;6.88;62.04;101685.00;5138958;27;45385;-68
2023/04/26 01:05:54;;;;;;;;;17.00;14.67;;;;;6.92;62.25;101706.84;5138453;27;46422;-68
2023/04/26 01:08:20;;;;;;;;;14.33;12.00;;;;;6.83;62.63;101699.81;5138775;27;45474;-68
2023/04/26 01:10:47;;;;;;;;;18.33;12.33;;;;;6.88;63.01;101705.06;5138589;27;45234;-68
2023/04/26 01:13:14;;;;;;;;;12.00;11.00;;;;;6.93;63.09;101714.72;5138854;27;45391;-68
2023/04/26 01:15:47;;;;;;;;;18.00;15.00;;;;;6.96;62.62;101712.13;5138648;27;45293;-68
2023/04/26 01:18:13;;;;;;;;;19.67;12.67;;;;;6.89;62.93;101710.31;5138072;27;45238;-68
2023/04/26 01:20:40;;;;;;;;;14.67;11.67;;;;;6.87;63.04;101706.81;5138507;27;45419;-68
2023/04/26 01:23:06;;;;;;;;;18.67;11.67;;;;;6.74;62.97;101686.66;5141244;27;45826;-69
2023/04/26 01:25:31;;;;;;;;;14.67;9.67;;;;;6.76;63.04;101703.22;5123265;27;47813;-68
2023/04/26 01:27:56;;;;;;;;;10.50;9.00;;;;;6.79;63.34;101714.59;5142115;27;45352;-69
2023/04/26 01:30:22;;;;;;;;;15.67;10.67;;;;;6.80;62.99;101700.66;5142137;27;45313;-69
2023/04/26 01:32:47;;;;;;;;;13.67;11.00;;;;;6.59;62.99;101659.50;5142126;27;45449;-69
2023/04/26 01:35:12;;;;;;;;;12.33;11.00;;;;;6.74;63.14;101679.66;5141743;27;46709;-69
2023/04/26 01:37:38;;;;;;;;;14.67;11.67;;;;;6.84;63.41;101688.47;5141923;27;45325;-69
2023/04/26 01:40:06;;;;;;;;;19.00;11.67;;;;;6.77;63.44;101677.06;5142030;27;45230;-69
2023/04/26 01:42:32;;;;;;;;;19.67;12.67;;;;;6.62;63.52;101656.91;5141878;27;45287;-69
2023/04/26 01:44:57;;;;;;;;;13.00;11.00;;;;;6.76;63.82;101682.28;5141439;27;46239;-69
2023/04/26 01:47:25;;;;;;;;;13.33;11.33;;;;;6.67;63.91;101672.63;5141860;27;45395;-69
2023/04/26 01:49:50;;;;;;;;;7.33;7.33;;;;;6.77;63.51;101676.19;5141564;27;45333;-69
2023/04/26 01:52:15;;;;;;;;;26.67;15.33;;;;;6.72;63.60;101675.28;5141910;27;45370;-69
2023/04/26 01:54:41;;;;;;;;;16.67;13.33;;;;;6.65;64.14;101676.97;5140510;27;45439;-69
2023/04/26 01:57:06;;;;;;;;;11.33;10.67;;;;;6.65;64.24;101682.22;5141400;27;45433;-68
2023/04/26 01:59:31;;;;;;;;;18.00;12.00;;;;;6.66;64.57;101686.56;5141766;27;45305;-68
2023/04/26 02:01:57;;;;;;;;;11.00;10.67;;;;;6.64;63.82;101677.84;5141698;27;45510;-68
2023/04/26 02:04:23;;;;;;;;;14.00;10.67;;;;;6.53;64.26;101658.53;5141353;27;46502;-68
2023/04/26 02:06:48;;;;;;;;;16.00;11.00;;;;;6.48;64.27;101655.91;5141351;27;45350;-68
2023/04/26 02:09:14;;;;;;;;;17.67;14.67;;;;;6.48;64.23;101663.75;5126235;27;45351;-68
2023/04/26 02:11:39;;;;;;;;;17.67;13.33;;;;;6.34;64.42;101631.34;5120866;27;45473;-68
2023/04/26 02:14:05;;;;;;;;;16.00;14.67;;;;;6.47;64.49;101654.13;5120310;27;47027;-68
2023/04/26 02:16:31;;;;;;;;;15.67;14.00;;;;;6.38;64.34;101654.06;5120511;27;45456;-68
2023/04/26 02:18:58;;;;;;;;;15.33;14.00;;;;;6.34;64.98;101657.50;5120231;27;45447;-68
2023/04/26 02:21:24;;;;;;;;;15.67;13.33;;;;;6.41;64.92;101668.03;5120503;27;45552;-68
2023/04/26 02:23:49;;;;;;;;;16.67;14.00;;;;;6.22;64.95;101643.44;5120321;27;47447;-68
2023/04/26 02:26:14;;;;;;;;;15.00;10.67;;;;;6.39;64.84;101674.09;5120245;27;45414;-68
2023/04/26 02:28:40;;;;;;;;;14.33;12.33;;;;;6.31;64.65;101654.88;5101935;27;45312;-68
2023/04/26 02:31:06;;;;;;;;;18.67;12.00;;;;;6.37;64.79;101666.25;5120370;27;45317;-68
2023/04/26 02:33:32;;;;;;;;;17.00;14.00;;;;;6.27;64.93;101654.84;5118701;27;46503;-67
2023/04/26 02:35:57;;;;;;;;;14.67;13.00;;;;;6.27;65.60;101660.06;5119927;27;45380;-67
2023/04/26 02:38:25;;;;;;;;;16.33;12.33;;;;;6.21;65.85;101659.13;5120331;27;45416;-67
2023/04/26 02:40:57;;;;;;;;;13.00;10.33;;;;;6.14;65.36;101652.06;5120390;27;45440;-67
2023/04/26 02:43:22;;;;;;;;;22.00;14.67;;;;;5.88;66.05;101608.19;5119645;27;46261;-67
2023/04/26 02:45:48;;;;;;;;;15.00;15.00;;;;;6.13;65.66;101653.81;5119841;27;45303;-67
2023/04/26 02:48:13;;;;;;;;;15.00;14.67;;;;;6.12;66.11;101651.19;5120315;27;45548;-67
2023/04/26 02:50:39;;;;;;;;;16.67;15.67;;;;;6.14;66.70;101650.31;5120020;27;45438;-67
2023/04/26 02:53:04;;;;;;;;;14.00;12.67;;;;;6.16;66.50;101652.94;5119656;27;46021;-67
2023/04/26 02:55:29;;;;;;;;;17.00;14.00;;;;;6.13;66.03;101642.47;5119913;27;45467;-67
2023/04/26 02:57:55;;;;;;;;;14.67;13.33;;;;;6.14;66.32;101647.72;5119808;27;45731;-67
2023/04/26 03:00:21;;;;;;;;;16.00;14.00;;;;;6.06;66.51;101621.50;5120219;27;45332;-67
2023/04/26 03:02:47;;;;;;;;;38.00;28.33;;;;;6.16;66.66;101632.94;5119529;27;45206;-67
2023/04/26 03:05:12;;;;;;;;;16.00;12.67;;;;;6.14;66.93;101621.56;5119350;27;45450;-67
2023/04/26 03:07:38;;;;;;;;;16.00;13.00;;;;;6.16;66.64;101624.19;5119693;27;45191;-67
2023/04/26 03:10:04;;;;;;;;;16.67;13.67;;;;;6.14;66.57;101623.31;5119653;27;45311;-67
2023/04/26 03:12:29;;;;;;;;;20.00;16.67;;;;;6.04;67.13;101610.16;5119581;27;45790;-67
2023/04/26 03:14:55;;;;;;;;;17.00;14.33;;;;;6.13;66.68;101626.78;5118919;27;45611;-67
2023/04/26 03:17:20;;;;;;;;;17.00;12.33;;;;;6.07;66.90;101619.75;5119391;27;45465;-67
2023/04/26 03:19:46;;;;;;;;;19.00;11.00;;;;;6.11;66.72;101621.53;5119370;27;45269;-70
2023/04/26 03:22:14;;;;;;;;;16.00;12.67;;;;;6.12;66.39;101628.53;5119194;27;47294;-70
2023/04/26 03:24:43;;;;;;;;;21.33;16.67;;;;;5.86;66.84;101591.63;5119400;27;45183;-70
2023/04/26 03:27:08;;;;;;;;;22.67;15.00;;;;;6.13;67.01;101640.75;5119452;27;45440;-70
2023/04/26 03:29:34;;;;;;;;;13.67;11.00;;;;;6.09;66.71;101631.13;5124991;27;45492;-70
2023/04/26 03:32:00;;;;;;;;;21.00;15.00;;;;;6.04;66.72;101624.94;5133048;27;47177;-70
2023/04/26 03:34:26;;;;;;;;;17.67;14.67;;;;;6.08;66.88;101626.75;5120610;27;45492;-70
2023/04/26 03:36:51;;;;;;;;;74.33;56.67;;;;;6.16;66.58;101635.56;5138745;27;45421;-70
2023/04/26 03:39:16;;;;;;;;;22.33;15.33;;;;;6.18;66.57;101644.28;5140033;27;45299;-70
2023/04/26 03:41:42;;;;;;;;;20.00;16.00;;;;;6.13;67.02;101635.53;5139628;27;45709;-68
2023/04/26 03:44:07;;;;;;;;;14.33;12.33;;;;;6.15;67.06;101639.00;5139839;27;45435;-66
2023/04/26 03:46:32;;;;;;;;;15.67;14.33;;;;;6.22;66.74;101643.44;5137956;27;45471;-67
2023/04/26 03:48:58;;;;;;;;;11.33;11.33;;;;;6.22;66.71;101640.84;5139941;27;45559;-67
2023/04/26 03:51:23;;;;;;;;;13.33;10.33;;;;;6.08;66.77;101627.63;5139310;27;46464;-67
2023/04/26 03:53:48;;;;;;;;;12.00;11.00;;;;;6.14;66.93;101639.00;5139687;27;45387;-67
2023/04/26 03:56:14;;;;;;;;;21.00;13.33;;;;;6.10;66.05;101632.88;5139687;27;45398;-68
2023/04/26 03:58:40;;;;;;;;;14.67;10.67;;;;;6.12;66.79;101641.59;5139750;27;45513;-69
2023/04/26 04:01:06;;;;;;;;;18.00;11.00;;;;;5.98;67.17;101620.53;5139274;27;47338;-69
2023/04/26 04:03:31;;;;;;;;;17.00;15.00;;;;;6.02;67.21;101631.91;5139512;27;45223;-69
2023/04/26 04:05:56;;;;;;;;;21.33;11.00;;;;;6.06;66.94;101633.72;5139530;27;45367;-69
2023/04/26 04:08:22;;;;;;;;;11.33;8.67;;;;;6.07;67.02;101632.81;5139822;27;45289;-69
2023/04/26 04:10:47;;;;;;;;;14.33;11.33;;;;;6.15;67.02;101640.75;5139176;27;45439;-68
2023/04/26 04:13:12;;;;;;;;;11.00;10.33;;;;;6.17;66.94;101645.16;5139667;27;46101;-68
2023/04/26 04:15:38;;;;;;;;;14.67;10.00;;;;;6.11;67.29;101629.38;5137903;27;45431;-68
2023/04/26 04:18:03;;;;;;;;;19.00;12.67;;;;;6.19;67.21;101640.81;5139610;27;45744;-69
2023/04/26 04:20:29;;;;;;;;;14.67;11.33;;;;;6.13;67.12;101627.69;5139043;27;46581;-69
2023/04/26 04:22:56;;;;;;;;;12.33;10.67;;;;;6.03;66.85;101613.63;5139154;27;45484;-69
2023/04/26 04:25:21;;;;;;;;;16.67;11.67;;;;;6.05;67.46;101621.50;5139425;27;45309;-69
2023/04/26 04:27:47;;;;;;;;;13.33;11.00;;;;;6.07;67.88;101623.25;5139433;27;45361;-69
2023/04/26 04:30:13;;;;;;;;;17.00;10.00;;;;;6.04;67.84;101620.63;5139064;27;46115;-69
2023/04/26 04:32:41;;;;;;;;;12.33;12.33;;;;;5.99;67.38;101600.53;5139263;27;45462;-69
2023/04/26 04:35:06;;;;;;;;;14.00;10.67;;;;;6.08;67.42;101618.91;5139002;27;45446;-69
2023/04/26 04:37:32;;;;;;;;;17.67;10.00;;;;;5.96;67.38;101595.22;5139447;27;45330;-69
2023/04/26 04:39:58;;;;;;;;;15.67;9.67;;;;;6.02;68.33;101618.84;5139128;27;45421;-68
2023/04/26 04:42:25;;;;;;;;;15.00;11.33;;;;;5.98;68.42;101609.22;5139072;27;45307;-69
2023/04/26 04:44:51;;;;;;;;;12.67;10.67;;;;;6.00;67.80;101608.38;5138994;27;45382;-68
2023/04/26 04:47:16;;;;;;;;;24.67;22.67;;;;;6.06;68.34;101629.34;5125106;27;45370;-68
2023/04/26 04:49:42;;;;;;;;;67.00;54.00;;;;;6.07;68.16;101636.34;5118044;27;45385;-70
2023/04/26 04:52:07;;;;;;;;;12.00;12.00;;;;;6.08;67.57;101626.75;5117873;27;45473;-72
2023/04/26 04:54:33;;;;;;;;;20.67;11.00;;;;;5.86;67.63;101600.34;5118152;27;45346;-73
2023/04/26 04:56:58;;;;;;;;;14.67;12.33;;;;;6.01;68.29;101640.59;5132661;27;45551;-73
2023/04/26 04:59:24;;;;;;;;;19.00;15.33;;;;;5.96;68.09;101626.59;5142001;27;47281;-73
2023/04/26 05:01:49;;;;;;;;;14.67;13.33;;;;;6.09;67.89;101647.66;5142445;27;45457;-73
2023/04/26 05:04:15;;;;;;;;;25.67;18.33;;;;;6.01;69.07;101631.06;5142527;27;45406;-72
2023/04/26 05:06:40;;;;;;;;;10.33;9.00;;;;;6.10;68.68;101648.56;5140001;27;45350;-72
2023/04/26 05:09:07;;;;;;;;;14.67;12.00;;;;;6.19;68.22;101651.25;5142162;27;47356;-72
2023/04/26 05:11:32;;;;;;;;;17.33;11.00;;;;;6.15;68.36;101652.09;5142292;27;45479;-72
2023/04/26 05:13:58;;;;;;;;;9.33;8.00;;;;;6.20;68.09;101658.25;5142262;27;45447;-72
2023/04/26 05:16:23;;;;;;;;;18.67;14.00;;;;;6.14;68.47;101652.06;5142475;27;45345;-72
2023/04/26 05:18:48;;;;;;;;;13.67;10.33;;;;;6.09;68.10;101642.44;5142114;27;46311;-72
2023/04/26 05:21:14;;;;;;;;;14.67;12.00;;;;;5.98;68.14;101617.91;5140781;27;45430;-72
2023/04/26 05:23:40;;;;;;;;;18.33;16.00;;;;;6.15;68.03;101646.84;5141913;27;45486;-72
2023/04/26 05:26:06;;;;;;;;;17.00;13.67;;;;;6.26;68.21;101668.78;5142201;27;45458;-72
2023/04/26 05:28:33;;;;;;;;;10.00;7.00;;;;;6.20;68.07;101658.25;5142027;27;45683;-72
2023/04/26 05:30:58;;;;;;;;;15.33;13.67;;;;;6.11;68.14;101637.22;5141842;27;45347;-72
2023/04/26 05:33:24;;;;;;;;;11.00;10.00;;;;;6.42;68.46;101671.53;5141975;27;45458;-72
2023/04/26 05:35:51;;;;;;;;;18.67;15.67;;;;;6.53;68.39;101658.53;5141903;27;45360;-72
2023/04/26 05:38:16;;;;;;;;;12.67;10.33;;;;;6.69;68.01;101646.47;5141822;27;45390;-72
2023/04/26 05:40:42;;;;;;;;;15.67;14.00;;;;;6.82;67.64;101657.91;5141687;27;45398;-72
2023/04/26 05:43:07;;;;;;;;;20.00;15.67;;;;;6.90;67.28;101658.84;5141556;27;45586;-72
2023/04/26 05:45:32;;;;;;;;;20.00;15.67;;;;;6.92;67.09;101651.88;5141880;27;45532;-72
2023/04/26 05:47:58;;;;;;;;;18.33;12.67;;;;;6.95;66.36;101644.91;5141571;27;45278;-72
2023/04/26 05:50:23;;;;;;;;;16.67;15.00;;;;;7.08;66.79;101661.56;5141684;27;45336;-73
2023/04/26 05:52:49;;;;;;;;;21.33;15.33;;;;;7.09;66.06;101642.38;5141504;27;45503;-72
2023/04/26 05:55:14;;;;;;;;;15.67;13.00;;;;;7.27;66.14;101664.31;5140317;27;45537;-72
2023/04/26 05:57:39;;;;;;;;;21.67;15.67;;;;;7.40;66.01;101662.63;5138957;27;45618;-72
2023/04/26 06:00:08;;;;;;;;;22.67;17.00;;;;;7.41;65.13;101656.53;5120695;27;45355;-72
2023/04/26 06:02:33;;;;;;;;;54.67;41.00;;;;;7.45;64.99;101658.28;5141185;27;45558;-72
2023/04/26 06:04:58;;;;;;;;;16.00;16.00;;;;;7.53;64.61;101648.72;5141428;27;45337;-73
2023/04/26 06:07:24;;;;;;;;;16.00;11.33;;;;;7.57;64.05;101660.09;5141059;27;45533;-71
2023/04/26 06:09:49;;;;;;;;;15.33;12.33;;;;;7.58;64.11;101670.59;5141285;27;45248;-72
2023/04/26 06:12:15;;;;;;;;;20.00;15.00;;;;;7.58;63.83;101662.75;5141409;27;45380;-73
2023/04/26 06:14:40;;;;;;;;;16.67;11.67;;;;;7.63;63.21;101674.09;5141684;27;45322;-75
2023/04/26 06:17:06;;;;;;;;;11.00;11.00;;;;;7.59;62.95;101663.59;5140991;27;45448;-75
2023/04/26 06:19:31;;;;;;;;;15.33;13.00;;;;;7.53;62.88;101651.34;5141130;27;45346;-75
2023/04/26 06:21:56;;;;;;;;;12.33;12.00;;;;;7.65;62.46;101661.91;5141272;27;45479;-74
2023/04/26 06:24:23;;;;;;;;;23.33;20.67;;;;;7.75;63.42;101672.41;5141226;27;45410;-74
2023/04/26 06:26:48;;;;;;;;;15.00;13.00;;;;;7.82;62.63;101672.41;5141040;27;46521;-74
2023/04/26 06:29:14;;;;;;;;;23.00;13.33;;;;;7.91;62.69;101675.97;5140885;27;45444;-74
2023/04/26 06:31:39;;;;;;;;;17.33;11.33;;;;;7.98;62.22;101668.09;5139564;27;45619;-74
2023/04/26 06:34:04;;;;;;;;;15.67;11.33;;;;;8.07;61.88;101669.88;5141144;27;45450;-74
2023/04/26 06:36:30;;;;;;;;;17.00;11.00;;;;;8.09;61.62;101667.25;5140482;27;46574;-74
2023/04/26 06:38:55;;;;;;;;;21.00;13.00;;;;;8.22;61.75;101684.78;5140622;27;45515;-72
2023/04/26 06:41:21;;;;;;;;;14.67;12.33;;;;;8.25;61.53;101663.81;5140984;27;45591;-70
2023/04/26 06:43:47;;;;;;;;;19.33;16.00;;;;;8.39;61.68;101668.19;5140270;27;45510;-68
2023/04/26 06:46:12;;;;;;;;;14.33;11.00;;;;;8.44;61.30;101674.34;5140683;27;46305;-68
2023/04/26 06:48:37;;;;;;;;;18.00;11.00;;;;;8.50;61.04;101675.22;5140646;27;45501;-70
2023/04/26 06:51:07;;;;;;;;;15.33;14.00;;;;;8.57;61.04;101676.13;5139105;27;45516;-69
2023/04/26 06:53:33;;;;;;;;;12.67;10.33;;;;;8.57;60.32;101660.38;5140592;27;45290;-67
2023/04/26 06:55:58;;;;;;;;;13.33;12.00;;;;;8.64;60.65;101683.13;5140510;27;46154;-67
2023/04/26 06:58:23;;;;;;;;;10.67;10.00;;;;;8.72;60.45;101683.13;5140534;27;45346;-67
2023/04/26 07:00:49;;;;;;;;;15.00;13.00;;;;;8.71;60.22;101670.84;5137789;27;45219;-67
2023/04/26 07:03:14;;;;;;;;;11.67;9.00;;;;;8.70;60.70;101667.38;5140317;27;45528;-68
2023/04/26 07:05:40;;;;;;;;;14.00;12.00;;;;;8.82;60.29;101678.75;5140363;27;45398;-68
2023/04/26 07:08:05;;;;;;;;;12.67;10.00;;;;;8.92;60.15;101674.34;5138975;27;45343;-68
2023/04/26 07:10:30;;;;;;;;;15.67;12.00;;;;;8.98;59.62;101663.84;5139285;27;45414;-68
2023/04/26 07:12:56;;;;;;;;;14.33;9.33;;;;;9.11;59.06;101669.97;5140533;27;45375;-68
2023/04/26 07:15:21;;;;;;;;;17.33;11.33;;;;;9.23;58.32;101668.16;5140310;27;46094;-68
2023/04/26 07:17:46;;;;;;;;;21.67;13.00;;;;;9.35;58.05;101675.16;5140232;27;45426;-68
2023/04/26 07:20:14;;;;;;;;;17.67;15.00;;;;;9.41;57.23;101672.50;5139487;27;45499;-68
2023/04/26 07:22:39;;;;;;;;;18.67;12.33;;;;;9.46;56.88;101655.84;5140384;27;45252;-68
2023/04/26 07:25:05;;;;;;;;;18.00;13.33;;;;;9.54;57.70;101659.31;5139923;27;46286;-68
2023/04/26 07:27:30;;;;;;;;;13.67;8.33;;;;;9.71;57.57;101672.41;5139722;27;45227;-68
2023/04/26 07:29:56;;;;;;;;;14.67;12.00;;;;;9.87;56.71;101681.97;5140151;27;45294;-68
2023/04/26 07:32:22;;;;;;;;;12.67;10.67;;;;;10.00;56.38;101661.72;5140257;27;45437;-68
2023/04/26 07:34:47;;;;;;;;;23.00;16.00;;;;;10.20;55.86;101658.13;5139941;27;46352;-67
2023/04/26 07:37:12;;;;;;;;;23.00;15.67;;;;;10.46;54.97;101686.94;5139750;27;45220;-68
2023/04/26 07:39:37;;;;;;;;;18.33;16.00;;;;;10.89;54.03;101664.63;5140225;27;45207;-68
2023/04/26 07:42:03;;;;;;;;;22.67;15.00;;;;;10.97;52.97;101675.97;5140085;27;45542;-68
2023/04/26 07:44:28;;;;;;;;;17.00;14.00;;;;;12.53;53.03;101669.66;5139500;27;46278;-68
2023/04/26 07:46:54;;;;;;;;;24.00;18.67;;;;;14.73;45.58;101662.56;5139588;27;45344;-68
2023/04/26 07:49:20;;;;;;;;;20.67;15.33;;;;;17.08;41.65;101661.72;5137663;27;45437;-68
2023/04/26 07:51:46;;;;;;;;;20.67;17.00;;;;;19.17;39.18;101674.88;5139657;27;45246;-68
2023/04/26 07:54:11;;;;;;;;;20.00;18.67;;;;;19.89;35.51;101654.72;5138471;27;45442;-68
2023/04/26 07:56:37;;;;;;;;;19.67;13.00;;;;;19.64;36.63;101670.06;5139296;27;45318;-67
2023/04/26 07:59:03;;;;;;;;;17.67;14.00;;;;;20.21;36.54;101671.03;5139755;27;45515;-66
2023/04/26 08:01:29;;;;;;;;;17.00;14.00;;;;;20.04;35.76;101671.84;5139633;27;45508;-67
2023/04/26 08:03:54;;;;;;;;;11.67;10.00;;;;;20.01;33.67;101680.88;5136849;27;45889;-67
2023/04/26 08:06:20;;;;;;;;;20.00;13.33;;;;;19.22;36.13;101663.06;5139339;27;45286;-67
2023/04/26 08:08:49;;;;;;;;;14.00;11.67;;;;;18.77;36.18;101667.63;5139117;27;45479;-68
2023/04/26 08:11:15;;;;;;;;;9.00;9.00;;;;;17.98;36.98;101677.06;5139755;27;45821;-68
2023/04/26 08:13:42;;;;;;;;;9.33;8.00;;;;;17.39;38.68;101672.13;5139110;27;46167;-68
2023/04/26 08:16:08;;;;;;;;;11.00;7.67;;;;;16.85;38.03;101639.41;5138329;27;45311;-68
2023/04/26 08:18:33;;;;;;;;;12.33;10.00;;;;;16.57;37.84;101657.22;5139422;27;45416;-68
2023/04/26 08:20:59;;;;;;;;;11.00;9.33;;;;;16.13;40.77;101631.19;5139294;27;45367;-68
2023/04/26 08:23:24;;;;;;;;;11.00;7.67;;;;;16.16;39.25;101653.22;5136874;27;45454;-67
2023/04/26 08:25:50;;;;;;;;;9.33;9.33;;;;;16.50;37.59;101657.44;5128071;27;45417;-67
2023/04/26 08:28:15;;;;;;;;;9.33;9.33;;;;;16.28;39.05;101661.69;5117554;27;45220;-68
2023/04/26 08:30:41;;;;;;;;;8.00;6.67;;;;;16.41;38.59;101670.16;5135738;27;45371;-68
2023/04/26 08:33:08;;;;;;;;;13.00;8.00;;;;;16.31;38.04;101667.78;5141301;27;46255;-68
2023/04/26 08:35:33;;;;;;;;;9.33;8.00;;;;;16.35;39.30;101661.47;5142615;27;45210;-68
2023/04/26 08:37:58;;;;;;;;;12.00;11.00;;;;;16.21;37.24;101661.03;5142905;27;45430;-68
2023/04/26 08:40:24;;;;;;;;;12.00;9.33;;;;;15.95;38.98;101651.22;5142879;27;45513;-68
2023/04/26 08:42:51;;;;;;;;;8.33;6.33;;;;;15.67;39.25;101644.06;5142393;27;47090;-68
2023/04/26 08:45:16;;;;;;;;;4.00;3.00;;;;;15.17;37.92;101630.47;5141020;27;45704;-68
2023/04/26 08:47:46;;;;;;;;;10.67;6.33;;;;;15.03;40.44;101652.94;5141221;27;45472;-68
2023/04/26 08:50:13;;;;;;;;;8.00;7.00;;;;;14.86;39.62;101650.72;5142820;27;45271;-68
2023/04/26 08:52:40;;;;;;;;;10.33;7.67;;;;;14.38;40.06;101613.91;5142022;27;47543;-68
2023/04/26 08:55:08;;;;;;;;;10.67;7.00;;;;;14.16;39.67;101630.31;5142366;27;45327;-68
2023/04/26 08:57:34;;;;;;;;;10.67;9.00;;;;;14.15;39.40;101633.88;5142561;27;45339;-68
2023/04/26 09:00:04;;;;;;;;;10.00;7.33;;;;;14.20;39.30;101625.81;5135844;27;45422;-68
2023/04/26 09:02:30;;;;;;;;;7.67;7.00;;;;;14.22;39.35;101634.63;5137609;27;46403;-69
2023/04/26 09:04:56;;;;;;;;;6.67;6.67;;;;;14.17;40.30;101634.69;5142156;27;45465;-69
2023/04/26 09:07:36;;;;;;;;;8.67;7.00;;;;;14.02;40.75;101643.88;5141161;27;45426;-69
2023/04/26 09:10:04;;;;;;;;;11.67;8.67;;;;;13.82;40.20;101644.31;5140339;27;45448;-69
2023/04/26 09:12:29;;;;;;;;;7.33;7.00;;;;;13.68;39.51;101628.75;5137292;27;45737;-68
2023/04/26 09:14:55;;;;;;;;;10.00;7.67;;;;;13.54;39.21;101610.50;5135576;27;45439;-68
2023/04/26 09:17:29;;;;;;;;;11.00;9.33;;;;;14.10;38.82;101639.28;5132011;27;45422;-68
2023/04/26 09:19:55;;;;;;;;;11.33;10.00;;;;;14.70;37.25;101641.44;5130634;27;45378;-68
2023/04/26 09:22:48;;;;;;;;;11.33;9.00;;;;;14.87;37.99;101638.31;5121199;27;46188;-67
2023/04/26 09:25:16;;;;;;;;;11.00;7.00;;;;;15.35;35.45;101634.34;5100013;27;45486;-67
2023/04/26 09:27:42;;;;;;;;;13.67;12.33;;;;;15.33;36.77;101631.75;5121333;27;45457;-68
2023/04/26 09:30:16;;;;;;;;;13.67;10.00;;;;;15.38;37.14;101636.94;5121792;27;45430;-68
2023/04/26 09:32:49;;;;;;;;;12.33;9.33;;;;;16.10;35.75;101612.69;5134709;27;45504;-68
2023/04/26 09:35:21;;;;;;;;;12.00;10.00;;;;;16.50;35.88;101624.66;5134038;27;45390;-67
2023/04/26 09:37:53;;;;;;;;;9.00;8.33;;;;;16.74;36.04;101633.59;5141723;27;45303;-69
2023/04/26 09:40:20;;;;;;;;;13.00;8.33;;;;;16.91;35.32;101625.06;5142019;27;45539;-68
2023/04/26 09:42:45;;;;;;;;;18.33;12.00;;;;;18.65;33.03;101625.47;5137992;27;45312;-68
2023/04/26 09:45:20;;;;;;;;;8.67;7.00;;;;;20.92;30.98;101625.56;5117827;27;45387;-72
2023/04/26 09:47:52;;;;;;;;;10.67;7.67;;;;;22.99;28.00;101621.13;5120706;27;45329;-71
2023/04/26 09:50:30;;;;;;;;;14.67;9.00;;;;;24.83;28.62;101611.03;5120833;27;45410;-70
2023/04/26 09:52:57;;;;;;;;;9.00;8.00;;;;;26.68;23.25;101615.63;5120273;27;45650;-70
2023/04/26 09:55:29;;;;;;;;;13.33;10.00;;;;;27.87;21.04;101610.72;5125746;27;45311;-71
2023/04/26 09:57:59;;;;;;;;;11.00;7.33;;;;;28.76;26.55;101615.97;5120756;27;45421;-69
2023/04/26 10:00:25;;;;;;;;;12.00;9.67;;;;;29.23;20.84;101604.69;5108397;27;45383;-67
2023/04/26 10:02:54;;;;;;;;;9.67;9.00;;;;;29.28;21.26;101602.41;5099506;27;46701;-67
2023/04/26 10:05:20;;;;;;;;;9.33;9.33;;;;;29.41;20.26;101594.91;5115918;27;45676;-70
2023/04/26 10:07:47;;;;;;;;;8.00;7.67;;;;;29.73;23.68;101595.69;5118219;27;45434;-68
2023/04/26 10:10:13;;;;;;;;;10.33;8.67;;;;;29.85;19.69;101595.47;5099486;27;45477;-66
2023/04/26 10:12:43;;;;;;;;;10.00;7.33;;;;;29.96;22.90;101589.06;5110767;27;47327;-67
2023/04/26 10:15:10;;;;;;;;;13.00;12.00;;;;;30.28;20.75;101592.47;5119957;27;45434;-68
2023/04/26 10:17:36;;;;;;;;;10.33;10.33;;;;;30.58;18.39;101587.91;5120134;27;45378;-67
2023/04/26 10:20:04;;;;;;;;;13.00;12.00;;;;;30.29;19.33;101591.47;5120565;27;45404;-67
2023/04/26 10:22:35;;;;;;;;;11.67;8.67;;;;;30.20;18.98;101587.78;5118019;27;45532;-66
2023/04/26 10:25:01;;;;;;;;;12.33;11.00;;;;;30.24;17.04;101582.88;5121683;27;45422;-66
2023/04/26 10:27:42;;;;;;;;;13.33;10.33;;;;;30.61;22.97;101584.91;5120298;27;45329;-66
2023/04/26 10:30:09;;;;;;;;;14.33;12.00;;;;;30.57;19.75;101578.88;5118659;27;45390;-66
2023/04/26 10:32:59;;;;;;;;;10.33;8.67;;;;;30.30;18.85;101579.63;5118732;27;46174;-67
2023/04/26 10:35:27;;;;;;;;;12.67;12.67;;;;;30.38;20.69;101564.31;5099072;27;45765;-66
2023/04/26 10:37:58;;;;;;;;;10.33;8.33;;;;;30.26;19.67;101583.63;5099538;27;45503;-65
2023/04/26 10:40:30;;;;;;;;;9.00;9.00;;;;;30.36;20.58;101570.88;5099040;27;45492;-67
2023/04/26 10:43:07;;;;;;;;;13.33;10.67;;;;;30.62;20.97;101568.44;5102882;27;46288;-66
2023/04/26 10:45:32;;;;;;;;;11.00;10.00;;;;;30.14;18.22;101563.91;5136164;27;45610;-66
2023/04/26 10:48:17;;;;;;;;;11.33;10.00;;;;;29.29;19.51;101575.16;5137412;27;45383;-66
2023/04/26 10:50:59;;;;;;;;;14.67;9.33;;;;;28.55;20.11;101568.03;5139374;27;45691;-67
2023/04/26 10:53:27;;;;;;;;;11.67;11.67;;;;;27.86;20.18;101563.88;5130028;27;46530;-66
2023/04/26 10:55:53;;;;;;;;;16.33;12.00;;;;;27.05;20.24;101553.25;5138191;27;45361;-66
2023/04/26 10:58:29;;;;;;;;;20.00;15.33;;;;;26.34;22.06;101564.16;5136788;27;45316;-65
2023/04/26 11:01:15;;;;;;;;;21.67;18.67;;;;;25.51;21.91;101549.63;5127554;27;45472;-66
2023/04/26 11:03:42;;;;;;;;;13.00;10.67;;;;;24.62;22.20;101543.34;5127264;27;45541;-66
2023/04/26 11:06:12;;;;;;;;;10.00;10.00;;;;;23.87;22.60;101560.03;5139655;27;45268;-66
2023/04/26 11:08:38;;;;;;;;;13.00;11.00;;;;;23.07;23.10;101565.09;5138509;27;45497;-66
2023/04/26 11:11:03;;;;;;;;;14.00;10.00;;;;;21.94;23.32;101561.06;5139425;27;45158;-66
2023/04/26 11:13:34;;;;;;;;;13.00;11.33;;;;;21.28;24.33;101537.97;5139747;27;47129;-67